createdAt,value
2023-05-22T00:01:08.481Z,99.90
2023-05-22T00:03:41.255Z,99.90
2023-05-22T00:06:10.439Z,99.90
2023-05-22T00:08:37.851Z,99.90
2023-05-22T00:11:09.483Z,99.90
2023-05-22T00:13:41.653Z,99.90
2023-05-22T00:16:12.549Z,99.90
2023-05-22T00:18:44.927Z,99.90
2023-05-22T00:21:14.192Z,99.90
2023-05-22T00:23:45.234Z,99.90
2023-05-22T00:26:19.269Z,99.90
2023-05-22T00:28:50.398Z,99.90
2023-05-22T00:31:23.057Z,99.90
2023-05-22T00:33:53.995Z,99.90
2023-05-22T00:36:25.368Z,99.90
2023-05-22T00:38:54.587Z,99.90
2023-05-22T00:41:22.940Z,99.90
2023-05-22T00:43:53.942Z,99.90
2023-05-22T00:46:24.114Z,99.90
2023-05-22T00:48:56.748Z,99.90
2023-05-22T00:51:33.121Z,99.90
2023-05-22T00:54:01.845Z,99.90
2023-05-22T00:56:37.102Z,99.90
2023-05-22T00:59:07.372Z,99.90
2023-05-22T01:01:47.262Z,99.90
2023-05-22T01:04:16.354Z,99.90
2023-05-22T01:06:50.404Z,99.90
2023-05-22T01:09:22.213Z,99.90
2023-05-22T01:12:25.152Z,99.90
2023-05-22T01:15:52.778Z,99.90
2023-05-22T01:18:43.539Z,99.90
2023-05-22T01:21:55.166Z,99.90
2023-05-22T01:25:05.436Z,99.90
2023-05-22T01:28:01.722Z,99.90
2023-05-22T01:30:54.236Z,99.90
2023-05-22T01:33:28.853Z,99.90
2023-05-22T01:36:02.236Z,99.90
2023-05-22T01:38:33.702Z,99.90
2023-05-22T01:41:03.735Z,99.90
2023-05-22T01:43:32.187Z,99.90
2023-05-22T01:46:06.736Z,99.90
2023-05-22T01:48:38.479Z,99.90
2023-05-22T01:51:39.483Z,99.90
2023-05-22T01:54:27.592Z,99.90
2023-05-22T01:57:30.321Z,99.90
2023-05-22T02:00:12.777Z,99.90
2023-05-22T02:03:42.203Z,99.90
2023-05-22T02:06:17.378Z,99.90
2023-05-22T02:08:50.420Z,99.90
2023-05-22T02:11:31.210Z,99.90
2023-05-22T02:14:02.375Z,99.90
2023-05-22T02:16:33.934Z,99.90
2023-05-22T02:19:11.811Z,99.90
2023-05-22T02:21:46.951Z,99.90
2023-05-22T02:24:18.077Z,99.90
2023-05-22T02:26:50.525Z,99.90
2023-05-22T02:29:20.649Z,99.90
2023-05-22T02:31:49.199Z,99.90
2023-05-22T02:34:22.747Z,99.90
2023-05-22T02:36:53.209Z,99.90
2023-05-22T02:39:22.881Z,99.90
2023-05-22T02:41:51.122Z,99.90
2023-05-22T02:44:21.881Z,99.90
2023-05-22T02:46:53.972Z,99.90
2023-05-22T02:49:26.957Z,99.90
2023-05-22T02:51:57.393Z,99.90
2023-05-22T02:54:29.543Z,99.90
2023-05-22T02:56:56.964Z,99.90
2023-05-22T02:59:31.613Z,99.90
2023-05-22T03:04:45.497Z,99.90
2023-05-22T03:07:16.119Z,99.90
2023-05-22T03:09:46.628Z,99.90
2023-05-22T03:12:18.745Z,99.90
2023-05-22T03:14:49.511Z,99.90
2023-05-22T03:17:19.178Z,99.90
2023-05-22T03:19:50.316Z,99.90
2023-05-22T03:22:23.015Z,99.90
2023-05-22T03:24:54.728Z,99.90
2023-05-22T03:27:26.842Z,99.90
2023-05-22T03:29:58.931Z,99.90
2023-05-22T03:32:29.508Z,99.90
2023-05-22T03:35:01.536Z,99.90
2023-05-22T03:37:34.904Z,99.90
2023-05-22T03:40:07.443Z,99.90
2023-05-22T03:42:36.468Z,99.90
2023-05-22T03:45:08.384Z,99.90
2023-05-22T03:47:42.842Z,99.90
2023-05-22T03:50:13.934Z,99.90
2023-05-22T03:55:32.061Z,99.90
2023-05-22T03:58:02.348Z,99.90
2023-05-22T04:00:34.247Z,99.90
2023-05-22T04:03:04.494Z,99.90
2023-05-22T04:05:35.987Z,99.90
2023-05-22T04:08:04.536Z,99.90
2023-05-22T04:10:33.260Z,99.90
2023-05-22T04:13:04.830Z,99.90
2023-05-22T04:15:40.976Z,99.90
2023-05-22T04:18:13.225Z,99.90
2023-05-22T04:20:49.131Z,99.90
2023-05-22T04:23:24.044Z,99.90
2023-05-22T04:25:54.201Z,99.90
2023-05-22T04:28:27.329Z,99.90
2023-05-22T04:30:57.962Z,99.90
2023-05-22T04:33:31.890Z,99.90
2023-05-22T04:36:01.826Z,99.90
2023-05-22T04:38:33.925Z,99.90
2023-05-22T04:41:05.337Z,99.90
2023-05-22T04:43:36.988Z,99.90
2023-05-22T04:46:11.201Z,99.90
2023-05-22T04:48:40.510Z,99.90
2023-05-22T04:51:10.079Z,99.90
2023-05-22T04:53:42.279Z,99.90
2023-05-22T04:56:13.063Z,99.90
2023-05-22T04:58:45.809Z,99.90
2023-05-22T05:01:17.351Z,99.90
2023-05-22T05:03:49.683Z,99.90
2023-05-22T05:06:20.071Z,99.90
2023-05-22T05:08:51.900Z,99.90
2023-05-22T05:11:24.418Z,99.90
2023-05-22T05:13:58.973Z,99.90
2023-05-22T05:16:27.377Z,99.90
2023-05-22T05:18:58.358Z,99.90
2023-05-22T05:21:28.019Z,99.90
2023-05-22T05:24:06.546Z,99.90
2023-05-22T05:26:36.528Z,99.90
2023-05-22T05:29:06.101Z,99.90
2023-05-22T05:31:57.300Z,99.90
2023-05-22T05:35:03.476Z,99.90
2023-05-22T05:37:57.074Z,99.90
2023-05-22T05:40:29.949Z,99.90
2023-05-22T05:43:01.440Z,99.90
2023-05-22T05:45:34.253Z,99.90
2023-05-22T05:48:04.478Z,99.90
2023-05-22T05:50:36.070Z,99.90
2023-05-22T05:53:05.321Z,99.90
2023-05-22T05:55:38.858Z,99.90
2023-05-22T05:58:08.487Z,99.90
2023-05-22T06:00:49.373Z,99.90
2023-05-22T06:03:21.475Z,99.90
2023-05-22T06:06:22.940Z,99.90
2023-05-22T06:09:29.833Z,99.90
2023-05-22T06:12:27.313Z,99.90
2023-05-22T06:15:03.155Z,99.90
2023-05-22T06:17:35.921Z,99.90
2023-05-22T06:20:11.251Z,99.90
2023-05-22T06:22:45.894Z,99.90
2023-05-22T06:25:18.611Z,99.90
2023-05-22T06:27:51.000Z,99.90
2023-05-22T06:30:38.716Z,99.90
2023-05-22T06:33:20.606Z,99.90
2023-05-22T06:35:52.581Z,99.90
2023-05-22T06:38:27.136Z,99.90
2023-05-22T06:40:58.197Z,99.90
2023-05-22T06:43:32.331Z,99.90
2023-05-22T06:46:10.301Z,99.90
2023-05-22T06:49:11.787Z,99.90
2023-05-22T06:51:49.541Z,99.90
2023-05-22T06:54:23.852Z,99.90
2023-05-22T06:57:00.178Z,99.90
2023-05-22T06:59:37.883Z,99.90
2023-05-22T07:05:09.234Z,99.90
2023-05-22T07:08:01.010Z,99.90
2023-05-22T07:10:39.097Z,99.90
2023-05-22T07:13:11.685Z,99.90
2023-05-22T07:15:40.991Z,99.90
2023-05-22T07:18:12.959Z,99.90
2023-05-22T07:20:42.808Z,99.90
2023-05-22T07:23:37.237Z,99.90
2023-05-22T07:26:09.092Z,99.90
2023-05-22T07:28:45.053Z,99.90
2023-05-22T07:31:19.399Z,99.90
2023-05-22T07:33:53.359Z,99.90
2023-05-22T07:36:25.750Z,99.90
2023-05-22T07:38:56.267Z,99.90
2023-05-22T07:41:30.815Z,99.90
2023-05-22T07:44:02.745Z,99.90
2023-05-22T07:46:42.432Z,99.90
2023-05-22T07:49:31.910Z,99.90
2023-05-22T07:52:06.373Z,99.90
2023-05-22T07:54:35.912Z,99.90
2023-05-22T07:57:03.773Z,99.90
2023-05-22T07:59:41.794Z,99.90
2023-05-22T08:02:14.447Z,99.90
2023-05-22T08:04:47.590Z,99.90
2023-05-22T08:07:17.263Z,99.90
2023-05-22T08:09:47.390Z,99.90
2023-05-22T08:12:17.877Z,99.90
2023-05-22T08:14:48.099Z,99.90
2023-05-22T08:17:19.237Z,99.90
2023-05-22T08:19:55.163Z,99.90
2023-05-22T08:22:24.205Z,99.90
2023-05-22T08:24:55.188Z,99.90
2023-05-22T08:27:23.678Z,99.90
2023-05-22T08:29:55.201Z,99.90
2023-05-22T08:32:28.076Z,99.90
2023-05-22T08:34:59.942Z,99.90
2023-05-22T08:37:32.844Z,99.90
2023-05-22T08:40:03.490Z,99.90
2023-05-22T08:42:36.555Z,99.90
2023-05-22T08:45:14.288Z,99.90
2023-05-22T08:47:46.761Z,99.90
2023-05-22T08:50:19.863Z,99.90
2023-05-22T08:52:51.483Z,99.90
2023-05-22T08:55:22.558Z,99.90
2023-05-22T08:57:59.283Z,99.90
2023-05-22T09:00:33.369Z,99.90
2023-05-22T09:03:04.833Z,99.90
2023-05-22T09:05:34.864Z,99.90
2023-05-22T09:08:19.094Z,99.90
2023-05-22T09:10:51.964Z,99.90
2023-05-22T09:13:33.533Z,99.90
2023-05-22T09:16:29.513Z,99.90
2023-05-22T09:19:05.869Z,99.90
2023-05-22T09:21:43.419Z,99.90
2023-05-22T09:24:15.212Z,99.90
2023-05-22T09:26:46.425Z,99.90
2023-05-22T09:29:15.819Z,99.90
2023-05-22T09:31:44.143Z,99.90
2023-05-22T09:34:18.359Z,99.90
2023-05-22T09:36:54.307Z,99.90
2023-05-22T09:39:22.491Z,99.90
2023-05-22T09:41:53.794Z,99.90
2023-05-22T09:44:26.996Z,99.90
2023-05-22T09:47:00.033Z,99.90
2023-05-22T09:49:30.712Z,99.90
2023-05-22T09:52:01.794Z,99.90
2023-05-22T09:54:37.571Z,99.90
2023-05-22T09:57:10.900Z,99.90
2023-05-22T09:59:57.963Z,99.90
2023-05-22T10:02:30.431Z,99.90
2023-05-22T10:05:08.492Z,99.90
2023-05-22T10:07:57.812Z,99.90
2023-05-22T10:10:26.108Z,99.90
2023-05-22T10:13:12.052Z,99.90
2023-05-22T10:15:44.641Z,99.90
2023-05-22T10:18:16.476Z,99.90
2023-05-22T10:20:45.015Z,99.90
2023-05-22T10:23:20.905Z,99.90
2023-05-22T10:25:52.123Z,99.90
2023-05-22T10:28:30.566Z,99.90
2023-05-22T10:31:21.719Z,99.90
2023-05-22T10:34:29.575Z,99.90
2023-05-22T10:37:36.210Z,99.90
2023-05-22T10:40:18.405Z,99.90
2023-05-22T10:42:46.169Z,99.90
2023-05-22T10:45:18.553Z,99.90
2023-05-22T10:47:49.122Z,99.90
2023-05-22T10:50:23.325Z,99.90
2023-05-22T10:53:26.628Z,99.90
2023-05-22T10:55:57.161Z,99.90
2023-05-22T10:58:47.478Z,99.90
2023-05-22T11:01:45.710Z,99.90
2023-05-22T11:04:29.485Z,99.90
2023-05-22T11:07:17.894Z,99.90
2023-05-22T11:09:51.004Z,99.90
2023-05-22T11:12:29.906Z,99.90
2023-05-22T11:15:09.751Z,99.90
2023-05-22T11:18:03.378Z,99.90
2023-05-22T11:20:38.320Z,99.90
2023-05-22T11:23:10.399Z,99.90
2023-05-22T11:25:40.414Z,99.90
2023-05-22T11:28:12.580Z,99.90
2023-05-22T11:30:44.056Z,99.90
2023-05-22T11:33:17.575Z,99.90
2023-05-22T11:35:50.142Z,99.90
2023-05-22T11:38:21.774Z,99.90
2023-05-22T11:40:56.041Z,99.90
2023-05-22T11:43:55.753Z,99.90
2023-05-22T11:46:26.871Z,99.90
2023-05-22T11:48:59.234Z,99.90
2023-05-22T11:51:31.362Z,99.90
2023-05-22T11:54:01.872Z,99.90
2023-05-22T11:56:31.190Z,99.90
2023-05-22T11:59:03.802Z,99.90
2023-05-22T12:01:34.415Z,99.90
2023-05-22T12:04:07.000Z,99.90
2023-05-22T12:06:38.586Z,99.90
2023-05-22T12:09:10.504Z,99.90
2023-05-22T12:11:39.539Z,99.90
2023-05-22T12:14:15.186Z,99.90
2023-05-22T12:16:44.807Z,99.90
2023-05-22T12:19:14.907Z,99.90
2023-05-22T12:21:44.848Z,99.90
2023-05-22T12:26:57.046Z,99.90
2023-05-22T12:29:28.066Z,99.90
2023-05-22T12:32:07.339Z,99.90
2023-05-22T12:34:36.834Z,99.90
2023-05-22T12:37:06.430Z,99.90
2023-05-22T12:39:40.829Z,99.90
2023-05-22T12:42:09.286Z,99.90
2023-05-22T12:44:47.823Z,99.90
2023-05-22T12:47:22.397Z,99.90
2023-05-22T12:49:53.993Z,99.90
2023-05-22T12:52:25.255Z,99.90
2023-05-22T12:54:56.622Z,99.90
2023-05-22T12:57:24.121Z,99.90
2023-05-22T12:59:57.698Z,99.90
2023-05-22T13:02:34.255Z,99.90
2023-05-22T13:05:04.589Z,99.90
2023-05-22T13:07:34.770Z,99.90
2023-05-22T13:10:08.850Z,99.90
2023-05-22T13:12:38.755Z,99.90
2023-05-22T13:15:09.958Z,99.90
2023-05-22T13:17:40.425Z,99.90
2023-05-22T13:20:10.679Z,99.90
2023-05-22T13:22:43.039Z,99.90
2023-05-22T13:25:15.786Z,99.90
2023-05-22T13:27:53.285Z,99.90
2023-05-22T13:30:25.641Z,99.90
2023-05-22T13:32:58.130Z,99.90
2023-05-22T13:35:28.634Z,99.90
2023-05-22T13:37:59.484Z,99.90
2023-05-22T13:40:29.232Z,99.90
2023-05-22T13:43:04.367Z,99.90
2023-05-22T13:45:35.649Z,99.90
2023-05-22T13:48:02.906Z,99.90
2023-05-22T13:50:31.549Z,99.90
2023-05-22T13:53:01.008Z,99.90
2023-05-22T13:55:32.254Z,99.90
2023-05-22T13:58:02.151Z,99.90
2023-05-22T14:00:35.946Z,99.90
2023-05-22T14:03:04.482Z,99.90
2023-05-22T14:05:35.365Z,99.90
2023-05-22T14:08:06.383Z,99.90
2023-05-22T14:10:39.009Z,99.90
2023-05-22T14:13:11.869Z,99.90
2023-05-22T14:15:41.374Z,99.90
2023-05-22T14:18:13.522Z,99.40
2023-05-22T14:20:44.599Z,99.50
2023-05-22T14:23:16.103Z,98.90
2023-05-22T14:25:47.737Z,99.00
2023-05-22T14:28:19.835Z,98.90
2023-05-22T14:30:49.373Z,99.20
2023-05-22T14:33:20.071Z,99.20
2023-05-22T14:35:56.175Z,98.90
2023-05-22T14:38:27.590Z,98.90
2023-05-22T14:40:57.116Z,98.70
2023-05-22T14:43:24.230Z,98.80
2023-05-22T14:45:54.730Z,98.60
2023-05-22T14:48:26.978Z,98.70
2023-05-22T14:50:58.922Z,99.30
2023-05-22T14:53:30.390Z,99.00
2023-05-22T14:55:59.783Z,99.20
2023-05-22T14:58:28.246Z,99.10
2023-05-22T15:00:59.388Z,98.80
2023-05-22T15:03:33.087Z,98.60
2023-05-22T15:06:04.322Z,98.70
2023-05-22T15:08:34.960Z,98.50
2023-05-22T15:11:06.254Z,98.40
2023-05-22T15:13:37.921Z,98.90
2023-05-22T15:16:07.582Z,99.10
2023-05-22T15:18:38.534Z,99.00
2023-05-22T15:21:09.564Z,99.30
2023-05-22T15:23:40.658Z,99.00
2023-05-22T15:26:08.299Z,99.10
2023-05-22T15:28:39.743Z,99.20
2023-05-22T15:31:10.327Z,99.40
2023-05-22T15:33:42.809Z,99.50
2023-05-22T15:36:14.151Z,99.60
2023-05-22T15:38:46.705Z,99.60
2023-05-22T15:41:18.575Z,99.40
2023-05-22T15:43:48.931Z,99.40
2023-05-22T15:46:20.577Z,99.50
2023-05-22T15:48:51.235Z,99.40
2023-05-22T15:51:23.097Z,99.80
2023-05-22T15:53:54.342Z,99.80
2023-05-22T15:56:23.974Z,99.30
2023-05-22T15:58:56.129Z,99.60
2023-05-22T16:01:28.597Z,99.50
2023-05-22T16:03:58.906Z,99.60
2023-05-22T16:06:31.926Z,99.90
2023-05-22T16:09:01.242Z,99.70
2023-05-22T16:11:34.008Z,99.90
2023-05-22T16:16:51.831Z,99.90
2023-05-22T16:22:10.570Z,99.90
2023-05-22T16:24:39.340Z,99.90
2023-05-22T16:27:07.796Z,99.90
2023-05-22T16:29:39.926Z,99.90
2023-05-22T16:32:12.154Z,99.90
2023-05-22T16:34:41.398Z,99.90
2023-05-22T16:37:12.193Z,99.90
2023-05-22T16:39:44.265Z,99.90
2023-05-22T16:42:18.739Z,99.90
2023-05-22T16:44:53.400Z,99.90
2023-05-22T16:47:24.350Z,99.90
2023-05-22T16:50:00.827Z,99.90
2023-05-22T16:52:31.510Z,99.90
2023-05-22T16:55:05.837Z,99.90
2023-05-22T16:57:36.253Z,99.90
2023-05-22T17:00:09.522Z,99.90
2023-05-22T17:02:41.530Z,99.90
2023-05-22T17:05:14.384Z,99.90
2023-05-22T17:07:46.576Z,99.90
2023-05-22T17:10:17.546Z,99.90
2023-05-22T17:12:47.479Z,99.90
2023-05-22T17:15:19.650Z,99.90
2023-05-22T17:17:48.283Z,99.90
2023-05-22T17:20:17.614Z,99.90
2023-05-22T17:22:49.525Z,99.90
2023-05-22T17:25:21.386Z,99.90
2023-05-22T17:27:50.673Z,99.90
2023-05-22T17:30:19.094Z,99.90
2023-05-22T17:32:57.034Z,99.90
2023-05-22T17:35:26.088Z,99.90
2023-05-22T17:37:58.957Z,99.90
2023-05-22T17:40:44.268Z,99.90
2023-05-22T17:43:20.326Z,99.90
2023-05-22T17:45:54.245Z,99.90
2023-05-22T17:48:30.337Z,99.90
2023-05-22T17:51:01.384Z,99.90
2023-05-22T17:53:37.780Z,99.90
2023-05-22T17:56:13.889Z,99.90
2023-05-22T17:58:46.004Z,99.90
2023-05-22T18:01:23.119Z,99.90
2023-05-22T18:03:50.924Z,99.90
2023-05-22T18:06:24.449Z,99.90
2023-05-22T18:08:56.105Z,99.90
2023-05-22T18:11:31.677Z,99.90
2023-05-22T18:16:54.812Z,99.90
2023-05-22T18:19:32.264Z,99.90
2023-05-22T18:22:00.480Z,99.90
2023-05-22T18:24:31.287Z,99.90
2023-05-22T18:27:03.224Z,99.90
2023-05-22T18:29:33.948Z,99.90
2023-05-22T18:32:06.758Z,99.90
2023-05-22T18:34:38.483Z,99.90
2023-05-22T18:37:13.793Z,99.90
2023-05-22T18:39:47.764Z,99.90
2023-05-22T18:42:20.382Z,99.90
2023-05-22T18:44:53.917Z,99.90
2023-05-22T18:47:23.121Z,99.90
2023-05-22T18:49:56.467Z,99.90
2023-05-22T18:52:24.855Z,99.90
2023-05-22T18:54:58.666Z,99.90
2023-05-22T18:57:33.859Z,99.90
2023-05-22T19:00:11.206Z,99.90
2023-05-22T19:02:42.433Z,99.90
2023-05-22T19:05:13.151Z,99.90
2023-05-22T19:07:44.255Z,99.90
2023-05-22T19:10:20.869Z,99.90
2023-05-22T19:12:53.779Z,99.90
2023-05-22T19:15:32.875Z,99.90
2023-05-22T19:18:08.109Z,99.90
2023-05-22T19:23:18.080Z,99.90
2023-05-22T19:25:46.936Z,99.90
2023-05-22T19:28:19.174Z,99.90
2023-05-22T19:30:51.446Z,99.90
2023-05-22T19:33:27.709Z,99.90
2023-05-22T19:35:58.095Z,99.90
2023-05-22T19:38:27.252Z,99.90
2023-05-22T19:41:00.964Z,99.90
2023-05-22T19:43:34.359Z,99.90
2023-05-22T19:46:08.508Z,99.90
2023-05-22T19:48:40.163Z,99.90
2023-05-22T19:51:13.802Z,99.90
2023-05-22T19:53:46.688Z,99.90
2023-05-22T19:56:19.320Z,99.90
2023-05-22T19:58:47.749Z,99.90
2023-05-22T20:01:19.070Z,99.90
2023-05-22T20:03:47.970Z,99.90
2023-05-22T20:06:19.043Z,99.90
2023-05-22T20:08:50.336Z,99.90
2023-05-22T20:11:21.238Z,99.90
2023-05-22T20:13:51.336Z,99.90
2023-05-22T20:16:20.332Z,99.90
2023-05-22T20:18:54.751Z,99.90
2023-05-22T20:21:32.494Z,99.90
2023-05-22T20:24:06.942Z,99.90
2023-05-22T20:26:37.523Z,99.90
2023-05-22T20:29:08.480Z,99.90
2023-05-22T20:31:40.375Z,99.90
2023-05-22T20:34:13.365Z,99.90
2023-05-22T20:36:45.571Z,99.90
2023-05-22T20:39:23.257Z,99.90
2023-05-22T20:41:52.675Z,99.90
2023-05-22T20:44:27.602Z,99.90
2023-05-22T20:47:00.469Z,99.90
2023-05-22T20:49:39.138Z,99.90
2023-05-22T20:52:10.228Z,99.90
2023-05-22T20:54:43.418Z,99.90
2023-05-22T20:57:15.166Z,99.90
2023-05-22T20:59:47.979Z,99.90
2023-05-22T21:02:20.481Z,99.90
2023-05-22T21:04:51.277Z,99.90
2023-05-22T21:07:23.047Z,99.90
2023-05-22T21:09:54.821Z,99.90
2023-05-22T21:12:21.937Z,99.90
2023-05-22T21:14:52.673Z,99.90
2023-05-22T21:17:23.286Z,99.90
2023-05-22T21:19:54.882Z,99.90
2023-05-22T21:22:25.545Z,99.90
2023-05-22T21:24:58.319Z,99.90
2023-05-22T21:27:31.489Z,99.90
2023-05-22T21:30:01.435Z,99.90
2023-05-22T21:32:37.173Z,99.90
2023-05-22T21:35:10.950Z,99.90
2023-05-22T21:37:44.549Z,99.90
2023-05-22T21:40:15.871Z,99.90
2023-05-22T21:42:48.950Z,99.90
2023-05-22T21:45:19.966Z,99.90
2023-05-22T21:47:51.156Z,99.90
2023-05-22T21:50:20.533Z,99.90
2023-05-22T21:52:50.758Z,99.90
2023-05-22T21:55:20.611Z,99.90
2023-05-22T21:57:51.123Z,99.90
2023-05-22T22:00:22.555Z,99.90
2023-05-22T22:02:51.565Z,99.90
2023-05-22T22:05:22.262Z,99.90
2023-05-22T22:07:50.006Z,99.90
2023-05-22T22:10:20.563Z,99.90
2023-05-22T22:12:48.564Z,99.90
2023-05-22T22:15:23.252Z,99.90
2023-05-22T22:17:55.704Z,99.90
2023-05-22T22:20:42.496Z,99.90
2023-05-22T22:23:14.998Z,99.90
2023-05-22T22:25:48.209Z,99.90
2023-05-22T22:28:19.479Z,99.90
2023-05-22T22:30:51.270Z,99.90
2023-05-22T22:33:19.557Z,99.90
2023-05-22T22:35:52.117Z,99.90
2023-05-22T22:38:22.192Z,99.90
2023-05-22T22:40:53.943Z,99.90
2023-05-22T22:43:22.397Z,99.90
2023-05-22T22:45:53.688Z,99.90
2023-05-22T22:48:22.420Z,99.90
2023-05-22T22:50:56.941Z,99.90
2023-05-22T22:53:27.658Z,99.90
2023-05-22T22:55:59.519Z,99.90
2023-05-22T22:58:31.166Z,99.90
2023-05-22T23:01:16.101Z,99.90
2023-05-22T23:03:45.513Z,99.90
2023-05-22T23:06:20.080Z,99.90
2023-05-22T23:08:48.575Z,99.90
2023-05-22T23:11:19.553Z,99.90
2023-05-22T23:13:47.862Z,99.90
2023-05-22T23:16:17.592Z,99.90
2023-05-22T23:18:46.124Z,99.90
2023-05-22T23:21:17.729Z,99.90
2023-05-22T23:23:49.005Z,99.90
2023-05-22T23:26:19.392Z,99.90
2023-05-22T23:28:48.872Z,99.90
2023-05-22T23:31:17.818Z,99.90
2023-05-22T23:33:50.378Z,99.90
2023-05-22T23:36:21.676Z,99.90
2023-05-22T23:38:51.431Z,99.90
2023-05-22T23:41:36.151Z,99.90
2023-05-22T23:44:08.667Z,99.90
2023-05-22T23:46:37.488Z,99.90
2023-05-22T23:49:18.279Z,99.90
2023-05-22T23:51:47.155Z,99.90
2023-05-22T23:54:19.653Z,99.90
2023-05-22T23:56:55.686Z,99.90
2023-05-22T23:59:24.615Z,99.90
